createdAt,value
2023-02-17T00:01:20.768Z,7.10
2023-02-17T00:03:53.737Z,7.10
2023-02-17T00:06:28.410Z,7.20
2023-02-17T00:09:01.867Z,7.20
2023-02-17T00:11:34.159Z,7.20
2023-02-17T00:14:06.162Z,7.20
2023-02-17T00:16:38.009Z,7.20
2023-02-17T00:19:25.058Z,7.20
2023-02-17T00:21:59.547Z,7.10
2023-02-17T00:24:33.223Z,7.00
2023-02-17T00:27:06.020Z,7.00
2023-02-17T00:29:38.119Z,6.90
2023-02-17T00:32:10.604Z,6.80
2023-02-17T00:34:42.494Z,6.70
2023-02-17T00:37:14.419Z,6.70
2023-02-17T00:39:46.282Z,6.60
2023-02-17T00:42:18.174Z,6.50
2023-02-17T00:44:50.107Z,6.50
2023-02-17T00:47:22.023Z,6.60
2023-02-17T00:49:53.851Z,6.60
2023-02-17T00:52:25.659Z,6.60
2023-02-17T00:54:57.544Z,6.60
2023-02-17T00:57:32.383Z,6.50
2023-02-17T01:00:06.872Z,6.40
2023-02-17T01:02:38.810Z,6.40
2023-02-17T01:05:10.716Z,6.40
2023-02-17T01:07:43.032Z,6.40
2023-02-17T01:10:15.032Z,6.30
2023-02-17T01:12:46.946Z,6.20
2023-02-17T01:15:18.885Z,6.20
2023-02-17T01:17:50.741Z,6.10
2023-02-17T01:20:22.638Z,6.00
2023-02-17T01:22:54.458Z,6.00
2023-02-17T01:25:26.308Z,6.00
2023-02-17T01:27:58.439Z,6.00
2023-02-17T01:30:30.539Z,5.90
2023-02-17T01:33:02.566Z,5.90
2023-02-17T01:35:35.065Z,5.90
2023-02-17T01:38:06.903Z,5.90
2023-02-17T01:40:46.846Z,5.90
2023-02-17T01:43:18.711Z,5.90
2023-02-17T01:45:55.976Z,5.90
2023-02-17T01:48:49.272Z,5.90
2023-02-17T01:51:28.722Z,5.90
2023-02-17T01:54:15.527Z,5.90
2023-02-17T01:56:49.191Z,5.80
2023-02-17T01:59:22.620Z,5.80
2023-02-17T02:01:59.546Z,5.90
2023-02-17T02:04:36.516Z,5.80
2023-02-17T02:07:17.700Z,5.70
2023-02-17T02:09:53.796Z,5.70
2023-02-17T02:12:28.629Z,5.60
2023-02-17T02:15:05.335Z,5.70
2023-02-17T02:17:59.908Z,5.80
2023-02-17T02:21:28.191Z,5.90
2023-02-17T02:24:05.718Z,5.80
2023-02-17T02:26:58.639Z,5.70
2023-02-17T02:29:40.660Z,5.60
2023-02-17T02:32:37.141Z,5.60
2023-02-17T02:35:21.466Z,5.50
2023-02-17T02:37:59.951Z,5.50
2023-02-17T02:40:37.614Z,5.40
2023-02-17T02:43:10.116Z,5.40
2023-02-17T02:45:42.440Z,5.30
2023-02-17T02:48:14.376Z,5.40
2023-02-17T02:50:49.149Z,5.40
2023-02-17T02:53:29.629Z,5.50
2023-02-17T02:56:43.779Z,5.50
2023-02-17T02:59:30.251Z,5.50
2023-02-17T03:02:16.169Z,5.50
2023-02-17T03:05:10.778Z,5.50
2023-02-17T03:07:56.196Z,5.40
2023-02-17T03:10:28.553Z,5.40
2023-02-17T03:13:02.913Z,5.40
2023-02-17T03:15:35.638Z,5.40
2023-02-17T03:18:07.582Z,5.40
2023-02-17T03:20:51.734Z,5.30
2023-02-17T03:23:23.698Z,5.30
2023-02-17T03:25:55.693Z,5.20
2023-02-17T03:28:28.446Z,5.20
2023-02-17T03:31:02.178Z,5.20
2023-02-17T03:33:34.361Z,5.20
2023-02-17T03:36:07.020Z,5.10
2023-02-17T03:38:39.316Z,5.10
2023-02-17T03:41:11.192Z,5.10
2023-02-17T03:43:43.066Z,5.10
2023-02-17T03:46:16.339Z,5.10
2023-02-17T03:48:48.301Z,5.20
2023-02-17T03:51:24.168Z,5.20
2023-02-17T03:53:55.986Z,5.20
2023-02-17T03:56:27.899Z,5.20
2023-02-17T03:58:59.806Z,5.20
2023-02-17T04:01:31.789Z,5.10
2023-02-17T04:04:03.712Z,5.20
2023-02-17T04:06:35.647Z,5.10
2023-02-17T04:09:07.605Z,5.10
2023-02-17T04:11:39.546Z,5.10
2023-02-17T04:14:11.417Z,5.10
2023-02-17T04:16:43.273Z,5.00
2023-02-17T04:19:15.155Z,5.00
2023-02-17T04:21:47.042Z,5.00
2023-02-17T04:24:18.856Z,5.00
2023-02-17T04:26:50.740Z,5.00
2023-02-17T04:29:22.586Z,5.10
2023-02-17T04:31:54.496Z,5.00
2023-02-17T04:34:26.452Z,5.00
2023-02-17T04:36:58.298Z,4.90
2023-02-17T04:39:30.272Z,4.90
2023-02-17T04:42:02.115Z,4.90
2023-02-17T04:44:34.105Z,4.90
2023-02-17T04:47:06.017Z,4.90
2023-02-17T04:49:37.929Z,5.00
2023-02-17T04:52:09.837Z,4.90
2023-02-17T04:54:41.705Z,5.00
2023-02-17T04:57:13.571Z,5.00
2023-02-17T04:59:45.622Z,4.90
2023-02-17T05:02:17.589Z,4.90
2023-02-17T05:04:49.489Z,4.90
2023-02-17T05:07:21.772Z,4.90
2023-02-17T05:09:54.332Z,4.90
2023-02-17T05:12:26.168Z,4.90
2023-02-17T05:14:58.005Z,4.90
2023-02-17T05:17:29.911Z,4.80
2023-02-17T05:20:01.971Z,4.90
2023-02-17T05:22:33.790Z,5.00
2023-02-17T05:25:06.352Z,5.00
2023-02-17T05:27:38.263Z,4.90
2023-02-17T05:30:10.649Z,4.90
2023-02-17T05:32:42.561Z,4.80
2023-02-17T05:35:14.479Z,4.90
2023-02-17T05:37:46.347Z,4.80
2023-02-17T05:40:18.324Z,4.80
2023-02-17T05:42:50.289Z,4.70
2023-02-17T05:45:22.128Z,4.70
2023-02-17T05:47:53.991Z,4.70
2023-02-17T05:50:25.809Z,4.70
2023-02-17T05:52:57.612Z,4.70
2023-02-17T05:55:29.488Z,4.60
2023-02-17T05:58:01.410Z,4.60
2023-02-17T06:00:33.239Z,4.60
2023-02-17T06:03:05.356Z,4.60
2023-02-17T06:05:37.283Z,4.60
2023-02-17T06:08:09.213Z,4.70
2023-02-17T06:10:42.524Z,4.70
2023-02-17T06:13:14.379Z,4.70
2023-02-17T06:15:46.811Z,4.70
2023-02-17T06:18:18.712Z,4.80
2023-02-17T06:20:50.595Z,4.70
2023-02-17T06:23:22.770Z,4.70
2023-02-17T06:25:55.193Z,4.60
2023-02-17T06:28:27.081Z,4.60
2023-02-17T06:30:58.886Z,4.60
2023-02-17T06:33:30.865Z,4.60
2023-02-17T06:36:02.816Z,4.60
2023-02-17T06:38:34.700Z,4.60
2023-02-17T06:41:06.618Z,4.60
2023-02-17T06:43:38.476Z,4.60
2023-02-17T06:46:10.545Z,4.60
2023-02-17T06:48:42.653Z,4.60
2023-02-17T06:51:14.565Z,4.70
2023-02-17T06:53:46.485Z,4.70
2023-02-17T06:56:20.912Z,4.70
2023-02-17T06:58:53.093Z,4.80
2023-02-17T07:01:26.641Z,5.00
2023-02-17T07:03:58.504Z,5.10
2023-02-17T07:06:30.454Z,5.20
2023-02-17T07:09:02.534Z,5.30
2023-02-17T07:11:34.388Z,5.30
2023-02-17T07:14:06.833Z,5.60
2023-02-17T07:16:39.577Z,5.80
2023-02-17T07:19:11.525Z,5.90
2023-02-17T07:21:44.643Z,5.90
2023-02-17T07:24:16.578Z,6.00
2023-02-17T07:26:48.696Z,6.00
2023-02-17T07:29:20.507Z,6.10
2023-02-17T07:31:52.437Z,6.20
2023-02-17T07:34:24.627Z,6.30
2023-02-17T07:36:56.485Z,6.50
2023-02-17T07:39:28.455Z,6.60
2023-02-17T07:42:01.126Z,6.70
2023-02-17T07:44:33.522Z,6.80
2023-02-17T07:47:05.346Z,6.90
2023-02-17T07:49:37.508Z,7.00
2023-02-17T07:52:09.323Z,7.20
2023-02-17T07:54:41.153Z,7.40
2023-02-17T07:57:13.006Z,7.50
2023-02-17T07:59:47.090Z,7.70
2023-02-17T08:02:19.239Z,7.80
2023-02-17T08:04:52.662Z,8.00
2023-02-17T08:07:24.727Z,8.10
2023-02-17T08:10:15.077Z,8.30
2023-02-17T08:13:09.916Z,8.40
2023-02-17T08:15:41.787Z,8.50
2023-02-17T08:18:13.634Z,8.70
2023-02-17T08:20:45.545Z,8.90
2023-02-17T08:23:17.468Z,9.00
2023-02-17T08:25:49.595Z,9.20
2023-02-17T08:28:21.661Z,9.30
2023-02-17T08:30:53.992Z,9.50
2023-02-17T08:33:26.171Z,9.50
2023-02-17T08:35:58.141Z,9.40
2023-02-17T08:38:29.959Z,9.40
2023-02-17T08:41:01.966Z,9.40
2023-02-17T08:43:33.856Z,9.30
2023-02-17T08:46:09.016Z,9.40
2023-02-17T08:48:41.721Z,9.60
2023-02-17T08:51:23.466Z,9.70
2023-02-17T08:53:58.015Z,9.90
2023-02-17T08:56:30.494Z,10.10
2023-02-17T08:59:02.435Z,10.20
2023-02-17T09:01:34.694Z,10.30
2023-02-17T09:04:09.298Z,10.30
2023-02-17T09:06:45.006Z,10.50
2023-02-17T09:09:20.596Z,10.70
2023-02-17T09:11:54.864Z,10.80
2023-02-17T09:14:27.513Z,11.10
2023-02-17T09:16:59.920Z,11.50
2023-02-17T09:19:31.884Z,11.70
2023-02-17T09:22:03.774Z,11.60
2023-02-17T09:24:38.768Z,11.50
2023-02-17T09:27:10.759Z,11.50
2023-02-17T09:29:42.656Z,11.40
2023-02-17T09:32:14.637Z,11.30
2023-02-17T09:34:53.150Z,11.00
2023-02-17T09:37:27.263Z,10.90
2023-02-17T09:39:59.383Z,11.00
2023-02-17T09:42:36.111Z,11.20
2023-02-17T09:45:12.945Z,11.10
2023-02-17T09:47:50.618Z,11.10
2023-02-17T09:50:32.849Z,11.30
2023-02-17T09:53:27.264Z,11.40
2023-02-17T09:56:04.988Z,11.40
2023-02-17T09:58:59.606Z,11.40
2023-02-17T10:01:34.591Z,11.30
2023-02-17T10:04:16.173Z,11.30
2023-02-17T10:06:54.532Z,11.40
2023-02-17T10:09:32.743Z,11.40
2023-02-17T10:12:13.966Z,11.60
2023-02-17T10:15:00.454Z,11.90
2023-02-17T10:17:46.025Z,12.00
2023-02-17T10:20:31.594Z,12.20
2023-02-17T10:23:14.209Z,12.20
2023-02-17T10:26:11.103Z,12.30
2023-02-17T10:28:50.613Z,12.40
2023-02-17T10:31:42.221Z,12.50
2023-02-17T10:34:31.261Z,12.50
2023-02-17T10:37:05.750Z,12.60
2023-02-17T10:40:11.545Z,12.70
2023-02-17T10:42:43.451Z,12.60
2023-02-17T10:45:31.388Z,12.60
2023-02-17T10:48:38.511Z,12.60
2023-02-17T10:51:15.917Z,12.50
2023-02-17T10:53:53.060Z,12.50
2023-02-17T10:56:44.316Z,12.40
2023-02-17T10:59:28.531Z,12.10
2023-02-17T11:02:19.661Z,11.80
2023-02-17T11:04:55.989Z,11.90
2023-02-17T11:07:34.736Z,11.80
2023-02-17T11:10:32.528Z,11.90
2023-02-17T11:13:27.675Z,12.10
2023-02-17T11:16:00.360Z,12.00
2023-02-17T11:18:35.797Z,12.00
2023-02-17T11:21:11.484Z,12.10
2023-02-17T11:23:54.517Z,12.30
2023-02-17T11:26:29.561Z,12.30
2023-02-17T11:29:22.340Z,12.30
2023-02-17T11:32:04.863Z,12.40
2023-02-17T11:34:42.249Z,12.50
2023-02-17T11:37:14.078Z,12.50
2023-02-17T11:39:53.415Z,12.90
2023-02-17T11:42:28.955Z,13.00
2023-02-17T11:45:12.064Z,13.20
2023-02-17T11:47:52.765Z,13.30
2023-02-17T11:50:41.397Z,13.50
2023-02-17T11:53:13.667Z,13.80
2023-02-17T11:55:54.649Z,13.90
2023-02-17T11:58:41.534Z,14.10
2023-02-17T12:01:34.405Z,14.00
2023-02-17T12:04:29.708Z,13.90
2023-02-17T12:07:23.053Z,14.10
2023-02-17T12:10:19.081Z,14.20
2023-02-17T12:13:36.460Z,14.20
2023-02-17T12:16:30.068Z,13.90
2023-02-17T12:19:22.889Z,13.90
2023-02-17T12:22:12.190Z,14.20
2023-02-17T12:25:05.882Z,14.30
2023-02-17T12:28:00.119Z,14.40
2023-02-17T12:31:12.907Z,14.20
2023-02-17T12:33:44.760Z,14.30
2023-02-17T12:36:18.761Z,14.50
2023-02-17T12:38:56.196Z,14.60
2023-02-17T12:41:34.988Z,14.80
2023-02-17T12:44:20.210Z,14.70
2023-02-17T12:47:10.006Z,14.70
2023-02-17T12:50:01.599Z,14.40
2023-02-17T12:52:39.566Z,14.60
2023-02-17T12:55:22.101Z,14.60
2023-02-17T12:58:03.840Z,14.70
2023-02-17T13:00:40.893Z,14.80
2023-02-17T13:03:12.984Z,14.90
2023-02-17T13:06:06.993Z,14.80
2023-02-17T13:08:50.394Z,14.70
2023-02-17T13:11:34.483Z,14.70
2023-02-17T13:14:43.777Z,14.70
2023-02-17T13:17:27.810Z,14.80
2023-02-17T13:20:24.480Z,14.80
2023-02-17T13:23:12.453Z,14.90
2023-02-17T13:25:44.404Z,14.90
2023-02-17T13:28:31.936Z,14.90
2023-02-17T13:31:20.355Z,14.90
2023-02-17T13:33:55.416Z,14.80
2023-02-17T13:36:33.348Z,14.70
2023-02-17T13:39:27.515Z,14.50
2023-02-17T13:42:04.106Z,14.30
2023-02-17T13:44:44.607Z,14.30
2023-02-17T13:47:21.847Z,14.20
2023-02-17T13:49:56.950Z,14.30
2023-02-17T13:52:31.359Z,14.30
2023-02-17T13:55:06.274Z,14.30
2023-02-17T13:57:38.176Z,14.20
2023-02-17T14:00:19.315Z,14.10
2023-02-17T14:02:54.384Z,14.10
2023-02-17T14:05:32.010Z,14.00
2023-02-17T14:08:12.104Z,14.00
2023-02-17T14:10:45.137Z,14.00
2023-02-17T14:13:17.945Z,14.10
2023-02-17T14:15:53.302Z,14.20
2023-02-17T14:18:40.329Z,14.30
2023-02-17T14:21:25.278Z,14.40
2023-02-17T14:23:58.843Z,14.50
2023-02-17T14:26:50.273Z,14.50
2023-02-17T14:29:22.143Z,14.40
2023-02-17T14:31:54.336Z,14.40
2023-02-17T14:34:32.145Z,14.40
2023-02-17T14:37:18.674Z,14.40
2023-02-17T14:39:51.496Z,14.20
2023-02-17T14:42:23.807Z,14.20
2023-02-17T14:44:55.832Z,14.30
2023-02-17T14:47:27.709Z,14.30
2023-02-17T14:49:59.531Z,14.40
2023-02-17T14:52:31.397Z,14.40
2023-02-17T14:55:03.473Z,14.30
2023-02-17T14:57:36.040Z,14.40
2023-02-17T15:00:13.336Z,14.40
2023-02-17T15:02:45.861Z,14.50
2023-02-17T15:05:17.923Z,14.40
2023-02-17T15:07:50.183Z,14.40
2023-02-17T15:10:29.683Z,14.40
2023-02-17T15:13:01.975Z,14.40
2023-02-17T15:15:34.361Z,14.40
2023-02-17T15:18:06.478Z,14.20
2023-02-17T15:20:41.634Z,14.30
2023-02-17T15:23:22.632Z,14.20
2023-02-17T15:25:56.683Z,14.10
2023-02-17T15:28:28.631Z,14.00
2023-02-17T15:31:02.120Z,13.90
2023-02-17T15:33:35.399Z,13.70
2023-02-17T15:36:11.780Z,13.60
2023-02-17T15:38:47.773Z,13.60
2023-02-17T15:41:24.013Z,13.50
2023-02-17T15:43:57.915Z,13.50
2023-02-17T15:46:32.666Z,13.50
2023-02-17T15:49:05.960Z,13.50
2023-02-17T15:51:37.856Z,13.50
2023-02-17T15:54:09.841Z,13.40
2023-02-17T15:56:46.815Z,13.40
2023-02-17T15:59:22.374Z,13.40
2023-02-17T16:02:01.323Z,13.30
2023-02-17T16:04:33.297Z,13.30
2023-02-17T16:07:05.443Z,13.20
2023-02-17T16:09:37.385Z,13.00
2023-02-17T16:12:26.456Z,12.90
2023-02-17T16:14:58.745Z,12.90
2023-02-17T16:17:35.697Z,12.80
2023-02-17T16:20:15.744Z,12.70
2023-02-17T16:22:48.418Z,12.50
2023-02-17T16:25:22.089Z,12.40
2023-02-17T16:27:54.131Z,12.30
2023-02-17T16:30:34.901Z,12.20
2023-02-17T16:33:09.323Z,12.20
2023-02-17T16:35:44.309Z,12.20
2023-02-17T16:38:22.711Z,12.20
2023-02-17T16:40:55.482Z,12.10
2023-02-17T16:43:27.985Z,12.00
2023-02-17T16:46:03.071Z,11.90
2023-02-17T16:48:36.638Z,11.80
2023-02-17T16:51:08.651Z,11.60
2023-02-17T16:53:40.654Z,11.50
2023-02-17T16:56:37.069Z,11.20
2023-02-17T16:59:18.296Z,11.20
2023-02-17T17:01:53.162Z,11.10
2023-02-17T17:04:25.543Z,11.10
2023-02-17T17:06:57.400Z,11.10
2023-02-17T17:09:30.639Z,11.10
2023-02-17T17:12:02.646Z,11.00
2023-02-17T17:14:34.620Z,11.00
2023-02-17T17:17:06.697Z,11.00
2023-02-17T17:19:38.585Z,11.00
2023-02-17T17:22:11.948Z,10.90
2023-02-17T17:24:44.086Z,10.70
2023-02-17T17:27:16.002Z,10.60
2023-02-17T17:29:47.860Z,10.40
2023-02-17T17:32:19.893Z,10.20
2023-02-17T17:34:53.271Z,10.10
2023-02-17T17:37:25.605Z,10.10
2023-02-17T17:39:57.492Z,10.00
2023-02-17T17:42:29.402Z,10.00
2023-02-17T17:45:01.693Z,10.00
2023-02-17T17:47:34.930Z,10.00
2023-02-17T17:50:13.481Z,9.90
2023-02-17T17:52:46.409Z,9.90
2023-02-17T17:55:18.561Z,9.80
2023-02-17T17:57:50.621Z,9.70
2023-02-17T18:00:22.931Z,9.60
2023-02-17T18:02:54.980Z,9.50
2023-02-17T18:05:26.932Z,9.50
2023-02-17T18:07:58.865Z,9.60
2023-02-17T18:10:32.533Z,9.60
2023-02-17T18:13:05.319Z,9.60
2023-02-17T18:15:37.501Z,9.60
2023-02-17T18:18:10.430Z,9.50
2023-02-17T18:20:42.712Z,9.40
2023-02-17T18:23:14.612Z,9.40
2023-02-17T18:25:46.773Z,9.40
2023-02-17T18:28:18.688Z,9.40
2023-02-17T18:30:50.816Z,9.50
2023-02-17T18:33:24.657Z,9.50
2023-02-17T18:35:56.710Z,9.50
2023-02-17T18:38:29.207Z,9.60
2023-02-17T18:41:01.119Z,9.70
2023-02-17T18:43:33.796Z,9.80
2023-02-17T18:46:06.975Z,9.80
2023-02-17T18:48:39.649Z,9.70
2023-02-17T18:51:14.833Z,9.70
2023-02-17T18:53:53.839Z,9.70
2023-02-17T18:56:29.108Z,9.80
2023-02-17T18:59:01.016Z,9.70
2023-02-17T19:01:35.055Z,9.70
2023-02-17T19:04:09.668Z,9.70
2023-02-17T19:06:41.688Z,9.70
2023-02-17T19:09:15.877Z,9.70
2023-02-17T19:11:47.777Z,9.70
2023-02-17T19:14:19.647Z,9.70
2023-02-17T19:16:51.481Z,9.70
2023-02-17T19:19:23.891Z,9.60
2023-02-17T19:21:55.865Z,9.70
2023-02-17T19:24:27.737Z,9.70
2023-02-17T19:26:59.602Z,9.90
2023-02-17T19:29:31.890Z,10.10
2023-02-17T19:32:04.584Z,10.20
2023-02-17T19:34:38.549Z,10.20
2023-02-17T19:37:10.434Z,10.10
2023-02-17T19:39:42.314Z,10.00
2023-02-17T19:42:14.202Z,9.80
2023-02-17T19:44:46.133Z,9.80
2023-02-17T19:47:18.021Z,9.80
2023-02-17T19:49:49.940Z,9.70
2023-02-17T19:52:21.757Z,9.70
2023-02-17T19:54:53.767Z,9.70
2023-02-17T19:57:25.700Z,9.60
2023-02-17T19:59:57.739Z,9.60
2023-02-17T20:02:29.806Z,9.50
2023-02-17T20:05:01.884Z,9.40
2023-02-17T20:07:33.889Z,9.30
2023-02-17T20:10:09.095Z,9.30
2023-02-17T20:12:41.174Z,9.50
2023-02-17T20:15:13.103Z,9.60
2023-02-17T20:17:45.104Z,9.50
2023-02-17T20:20:17.108Z,9.40
2023-02-17T20:22:49.130Z,9.30
2023-02-17T20:25:21.116Z,9.20
2023-02-17T20:27:53.840Z,9.00
2023-02-17T20:30:26.170Z,8.90
2023-02-17T20:32:58.141Z,8.80
2023-02-17T20:35:30.664Z,8.70
2023-02-17T20:38:03.994Z,8.60
2023-02-17T20:40:36.077Z,8.60
2023-02-17T20:43:12.283Z,8.60
2023-02-17T20:45:45.048Z,8.50
2023-02-17T20:48:17.242Z,8.50
2023-02-17T20:50:49.142Z,8.50
2023-02-17T20:53:21.099Z,8.50
2023-02-17T20:55:53.107Z,8.50
2023-02-17T20:58:25.172Z,8.50
2023-02-17T21:00:57.160Z,8.40
2023-02-17T21:03:29.060Z,8.40
2023-02-17T21:06:03.516Z,8.30
2023-02-17T21:08:35.325Z,8.20
2023-02-17T21:11:07.185Z,8.20
2023-02-17T21:13:39.589Z,8.20
2023-02-17T21:16:16.188Z,8.20
2023-02-17T21:18:48.115Z,8.10
2023-02-17T21:21:20.380Z,8.20
2023-02-17T21:23:52.583Z,8.20
2023-02-17T21:26:24.815Z,8.20
2023-02-17T21:28:56.991Z,8.20
2023-02-17T21:31:29.292Z,8.10
2023-02-17T21:34:01.465Z,8.00
2023-02-17T21:36:33.424Z,8.00
2023-02-17T21:39:05.973Z,8.00
2023-02-17T21:41:41.664Z,8.00
2023-02-17T21:44:32.434Z,7.90
2023-02-17T21:47:04.561Z,7.80
2023-02-17T21:49:36.370Z,7.80
2023-02-17T21:52:08.535Z,7.80
2023-02-17T21:54:40.616Z,7.70
2023-02-17T21:57:12.557Z,7.70
2023-02-17T21:59:44.456Z,7.70
2023-02-17T22:02:16.360Z,7.70
2023-02-17T22:04:48.361Z,7.60
2023-02-17T22:07:20.250Z,7.40
2023-02-17T22:09:52.169Z,7.30
2023-02-17T22:12:24.020Z,7.30
2023-02-17T22:14:55.983Z,7.30
2023-02-17T22:17:27.893Z,7.20
2023-02-17T22:19:59.944Z,7.20
2023-02-17T22:22:31.871Z,7.10
2023-02-17T22:25:04.024Z,7.00
2023-02-17T22:27:35.933Z,7.00
2023-02-17T22:30:09.161Z,7.10
2023-02-17T22:32:43.005Z,7.00
2023-02-17T22:35:15.115Z,7.00
2023-02-17T22:37:46.928Z,7.00
2023-02-17T22:40:18.915Z,7.00
2023-02-17T22:42:50.839Z,7.00
2023-02-17T22:45:22.714Z,6.90
2023-02-17T22:47:54.543Z,6.80
2023-02-17T22:50:26.391Z,6.60
2023-02-17T22:52:58.236Z,6.60
2023-02-17T22:55:30.078Z,6.60
2023-02-17T22:58:02.036Z,6.60
2023-02-17T23:00:33.906Z,6.60
2023-02-17T23:03:05.991Z,6.50
2023-02-17T23:05:37.995Z,6.50
2023-02-17T23:08:11.020Z,6.50
2023-02-17T23:10:43.613Z,6.50
2023-02-17T23:13:15.414Z,6.50
2023-02-17T23:15:47.252Z,6.60
2023-02-17T23:18:19.976Z,6.60
2023-02-17T23:20:51.914Z,6.50
2023-02-17T23:23:24.312Z,6.50
2023-02-17T23:25:56.400Z,6.50
2023-02-17T23:28:28.423Z,6.50
2023-02-17T23:31:00.424Z,6.50
2023-02-17T23:33:32.292Z,6.50
2023-02-17T23:36:05.548Z,6.40
2023-02-17T23:38:37.674Z,6.40
2023-02-17T23:41:10.945Z,6.40
2023-02-17T23:43:42.947Z,6.30
2023-02-17T23:46:16.281Z,6.30
2023-02-17T23:48:48.354Z,6.20
2023-02-17T23:51:20.405Z,6.10
2023-02-17T23:53:52.440Z,6.20
2023-02-17T23:56:33.485Z,6.20
2023-02-17T23:59:05.941Z,6.30
